createdAt,value
2018-06-30T00:01:42.784Z,19.96
2018-06-30T00:04:17.196Z,19.93
2018-06-30T00:06:51.678Z,19.92
2018-06-30T00:09:26.296Z,19.92
2018-06-30T00:12:00.833Z,19.91
2018-06-30T00:14:35.324Z,19.92
2018-06-30T00:17:10.034Z,19.93
2018-06-30T00:19:44.567Z,19.91
2018-06-30T00:22:19.379Z,19.85
2018-06-30T00:24:53.933Z,19.79
2018-06-30T00:27:28.604Z,19.80
2018-06-30T00:30:03.096Z,19.74
2018-06-30T00:32:37.623Z,19.74
2018-06-30T00:35:12.169Z,19.74
2018-06-30T00:37:46.710Z,19.64
2018-06-30T00:40:21.284Z,19.55
2018-06-30T00:42:55.867Z,19.63
2018-06-30T00:45:30.513Z,19.66
2018-06-30T00:48:05.220Z,19.69
2018-06-30T00:50:39.708Z,19.65
2018-06-30T00:53:14.074Z,19.52
2018-06-30T00:55:48.462Z,19.55
2018-06-30T00:58:22.886Z,19.52
2018-06-30T01:00:57.517Z,19.56
2018-06-30T01:03:32.132Z,19.53
2018-06-30T01:06:06.500Z,19.51
2018-06-30T01:08:40.917Z,19.43
2018-06-30T01:11:15.511Z,19.27
2018-06-30T01:13:50.006Z,19.33
2018-06-30T01:16:24.903Z,19.29
2018-06-30T01:18:59.439Z,19.27
2018-06-30T01:21:33.834Z,19.23
2018-06-30T01:24:08.910Z,19.26
2018-06-30T01:26:43.614Z,19.12
2018-06-30T01:29:18.232Z,19.17
2018-06-30T01:31:52.898Z,19.20
2018-06-30T01:34:27.561Z,19.16
2018-06-30T01:37:02.124Z,19.18
2018-06-30T01:39:36.683Z,19.18
2018-06-30T01:42:11.217Z,19.05
2018-06-30T01:44:45.693Z,19.08
2018-06-30T01:47:20.480Z,19.14
2018-06-30T01:49:55.007Z,19.13
2018-06-30T01:52:29.632Z,19.11
2018-06-30T01:55:04.276Z,18.90
2018-06-30T01:57:39.129Z,18.79
2018-06-30T02:00:13.732Z,18.88
2018-06-30T02:02:48.217Z,18.92
2018-06-30T02:05:22.657Z,18.83
2018-06-30T02:07:57.357Z,18.85
2018-06-30T02:10:31.983Z,18.80
2018-06-30T02:13:06.701Z,18.78
2018-06-30T02:15:41.165Z,18.80
2018-06-30T02:18:15.809Z,18.68
2018-06-30T02:20:50.355Z,18.75
2018-06-30T02:23:24.733Z,18.77
2018-06-30T02:25:59.197Z,18.78
2018-06-30T02:28:33.656Z,18.67
2018-06-30T02:31:08.050Z,18.59
2018-06-30T02:33:42.669Z,18.66
2018-06-30T02:36:17.091Z,18.66
2018-06-30T02:38:51.523Z,18.70
2018-06-30T02:41:25.992Z,18.64
2018-06-30T02:44:00.614Z,18.66
2018-06-30T02:46:35.204Z,18.57
2018-06-30T02:49:09.678Z,18.46
2018-06-30T02:51:44.112Z,18.51
2018-06-30T02:54:18.510Z,18.41
2018-06-30T02:56:53.203Z,18.34
2018-06-30T02:59:27.908Z,18.35
2018-06-30T03:02:02.396Z,18.39
2018-06-30T03:04:37.053Z,18.35
2018-06-30T03:07:11.716Z,18.35
2018-06-30T03:09:46.312Z,18.31
2018-06-30T03:12:20.899Z,18.34
2018-06-30T03:14:55.457Z,18.23
2018-06-30T03:17:29.915Z,18.19
2018-06-30T03:20:04.863Z,18.24
2018-06-30T03:22:39.341Z,18.21
2018-06-30T03:25:13.820Z,18.22
2018-06-30T03:27:48.405Z,18.12
2018-06-30T03:30:23.044Z,18.08
2018-06-30T03:32:57.878Z,18.08
2018-06-30T03:35:32.540Z,18.00
2018-06-30T03:38:07.022Z,18.02
2018-06-30T03:40:41.593Z,17.99
2018-06-30T03:43:16.317Z,18.02
2018-06-30T03:45:50.822Z,17.93
2018-06-30T03:48:25.420Z,17.99
2018-06-30T03:51:00.104Z,18.06
2018-06-30T03:53:34.574Z,18.08
2018-06-30T03:56:09.176Z,18.16
2018-06-30T03:58:43.555Z,18.16
2018-06-30T04:01:18.141Z,18.20
2018-06-30T04:03:52.754Z,18.22
2018-06-30T04:06:27.192Z,18.31
2018-06-30T04:09:01.792Z,18.36
2018-06-30T04:11:36.531Z,18.26
2018-06-30T04:14:11.007Z,18.15
2018-06-30T04:16:45.447Z,18.16
2018-06-30T04:19:20.135Z,18.25
2018-06-30T04:21:54.535Z,18.21
2018-06-30T04:24:29.045Z,18.31
2018-06-30T04:27:03.602Z,18.44
2018-06-30T04:29:38.109Z,18.43
2018-06-30T04:32:12.505Z,18.48
2018-06-30T04:34:47.100Z,18.57
2018-06-30T04:37:21.538Z,18.62
2018-06-30T04:39:56.305Z,18.55
2018-06-30T04:42:30.723Z,18.76
2018-06-30T04:45:05.472Z,18.81
2018-06-30T04:47:39.932Z,18.90
2018-06-30T04:50:14.589Z,19.04
2018-06-30T04:52:49.140Z,19.09
2018-06-30T04:55:23.705Z,19.10
2018-06-30T04:57:58.147Z,19.30
2018-06-30T05:00:32.572Z,19.44
2018-06-30T05:03:07.249Z,19.45
2018-06-30T05:05:41.797Z,19.60
2018-06-30T05:08:16.288Z,19.63
2018-06-30T05:10:50.678Z,19.75
2018-06-30T05:13:25.105Z,19.82
2018-06-30T05:15:59.704Z,19.93
2018-06-30T05:18:34.198Z,20.03
2018-06-30T05:21:08.742Z,20.11
2018-06-30T05:23:43.227Z,20.07
2018-06-30T05:26:17.837Z,20.07
2018-06-30T05:28:52.315Z,20.35
2018-06-30T05:31:26.688Z,20.50
2018-06-30T05:34:01.201Z,20.67
2018-06-30T05:36:35.776Z,20.81
2018-06-30T05:39:10.402Z,20.92
2018-06-30T05:41:44.929Z,20.94
2018-06-30T05:44:19.410Z,20.99
2018-06-30T05:46:53.885Z,21.01
2018-06-30T05:49:28.356Z,21.11
2018-06-30T05:52:02.892Z,21.13
2018-06-30T05:54:37.481Z,21.20
2018-06-30T05:57:12.065Z,21.21
2018-06-30T05:59:46.458Z,21.44
2018-06-30T06:02:20.922Z,21.48
2018-06-30T06:04:55.572Z,21.62
2018-06-30T06:07:30.154Z,21.78
2018-06-30T06:10:04.786Z,21.81
2018-06-30T06:12:39.335Z,21.80
2018-06-30T06:15:13.938Z,21.94
2018-06-30T06:17:48.465Z,22.06
2018-06-30T06:20:22.912Z,22.23
2018-06-30T06:22:57.322Z,22.27
2018-06-30T06:25:32.051Z,22.21
2018-06-30T06:28:06.966Z,22.50
2018-06-30T06:30:41.425Z,22.58
2018-06-30T06:33:15.828Z,22.81
2018-06-30T06:35:50.189Z,22.96
2018-06-30T06:38:24.673Z,22.80
2018-06-30T06:40:59.260Z,23.04
2018-06-30T06:43:33.644Z,23.97
2018-06-30T06:46:08.247Z,24.94
2018-06-30T06:48:42.702Z,26.89
2018-06-30T06:51:17.152Z,26.99
2018-06-30T06:53:51.626Z,28.36
2018-06-30T06:56:26.090Z,29.32
2018-06-30T06:59:00.643Z,30.12
2018-06-30T07:01:35.077Z,29.36
2018-06-30T07:04:09.400Z,29.95
2018-06-30T07:06:43.898Z,29.70
2018-06-30T07:09:18.423Z,30.71
2018-06-30T07:11:54.178Z,30.94
2018-06-30T07:14:28.848Z,30.90
2018-06-30T07:17:03.417Z,31.33
2018-06-30T07:19:37.882Z,31.24
2018-06-30T07:22:12.333Z,31.53
2018-06-30T07:24:46.803Z,31.23
2018-06-30T07:27:21.144Z,32.38
2018-06-30T07:29:55.552Z,32.67
2018-06-30T07:32:30.073Z,32.47
2018-06-30T07:35:05.015Z,33.40
2018-06-30T07:37:39.342Z,32.20
2018-06-30T07:40:13.931Z,31.32
2018-06-30T07:42:48.303Z,31.67
2018-06-30T07:45:23.282Z,33.95
2018-06-30T07:47:57.685Z,32.33
2018-06-30T07:50:32.011Z,31.16
2018-06-30T07:53:06.560Z,30.83
2018-06-30T07:55:41.125Z,31.13
2018-06-30T07:58:15.520Z,31.40
2018-06-30T08:00:50.033Z,34.09
2018-06-30T08:03:24.364Z,33.72
2018-06-30T08:05:58.772Z,33.07
2018-06-30T08:08:33.279Z,34.23
2018-06-30T08:11:07.724Z,33.28
2018-06-30T08:13:42.116Z,33.74
2018-06-30T08:16:16.804Z,33.97
2018-06-30T08:18:51.356Z,34.00
2018-06-30T08:21:26.090Z,34.48
2018-06-30T08:24:00.619Z,34.43
2018-06-30T08:26:35.161Z,35.79
2018-06-30T08:29:09.777Z,35.55
2018-06-30T08:31:44.249Z,35.05
2018-06-30T08:34:18.688Z,35.17
2018-06-30T08:36:53.200Z,34.99
2018-06-30T08:39:27.645Z,32.18
2018-06-30T08:42:02.142Z,32.51
2018-06-30T08:44:36.730Z,34.01
2018-06-30T08:47:11.038Z,35.03
2018-06-30T08:49:45.452Z,34.69
2018-06-30T08:52:19.924Z,34.73
2018-06-30T08:54:54.728Z,34.77
2018-06-30T08:57:29.245Z,33.05
2018-06-30T09:00:05.071Z,34.04
2018-06-30T09:02:39.539Z,35.13
2018-06-30T09:05:13.926Z,36.36
2018-06-30T09:07:48.341Z,36.00
2018-06-30T09:10:22.833Z,35.87
2018-06-30T09:12:57.391Z,35.93
2018-06-30T09:15:31.791Z,34.45
2018-06-30T09:18:06.628Z,33.13
2018-06-30T09:20:41.076Z,33.64
2018-06-30T09:23:15.496Z,33.43
2018-06-30T09:25:49.840Z,33.68
2018-06-30T09:28:24.404Z,34.35
2018-06-30T09:30:58.992Z,34.47
2018-06-30T09:33:33.484Z,33.83
2018-06-30T09:36:08.190Z,35.83
2018-06-30T09:38:42.769Z,34.46
2018-06-30T09:41:17.260Z,32.03
2018-06-30T09:43:52.118Z,33.43
2018-06-30T09:46:26.587Z,33.74
2018-06-30T09:49:00.987Z,33.90
2018-06-30T09:51:35.647Z,33.30
2018-06-30T09:54:10.209Z,34.54
2018-06-30T09:56:44.765Z,33.74
2018-06-30T09:59:19.142Z,34.63
2018-06-30T10:01:53.564Z,34.69
2018-06-30T10:04:28.244Z,34.69
2018-06-30T10:07:02.623Z,33.94
2018-06-30T10:09:37.144Z,33.06
2018-06-30T10:12:11.528Z,33.77
2018-06-30T10:14:45.982Z,33.81
2018-06-30T10:17:20.227Z,33.90
2018-06-30T10:19:54.471Z,34.02
2018-06-30T10:22:28.704Z,33.83
2018-06-30T10:25:03.107Z,34.99
2018-06-30T10:27:37.472Z,34.02
2018-06-30T10:30:11.769Z,34.62
2018-06-30T10:32:46.043Z,33.81
2018-06-30T10:35:20.476Z,35.12
2018-06-30T10:37:54.791Z,34.47
2018-06-30T10:40:29.201Z,35.64
2018-06-30T10:43:03.481Z,35.69
2018-06-30T10:45:37.851Z,35.55
2018-06-30T10:48:12.241Z,36.10
2018-06-30T10:50:46.672Z,38.17
2018-06-30T10:53:20.979Z,35.90
2018-06-30T10:55:55.438Z,34.93
2018-06-30T10:58:29.815Z,34.41
2018-06-30T11:01:04.187Z,34.87
2018-06-30T11:03:38.589Z,34.33
2018-06-30T11:06:13.008Z,35.35
2018-06-30T11:08:47.431Z,34.90
2018-06-30T11:11:21.739Z,35.12
2018-06-30T11:13:56.167Z,34.32
2018-06-30T11:16:30.399Z,34.10
2018-06-30T11:19:04.883Z,34.53
2018-06-30T11:21:39.096Z,35.13
2018-06-30T11:24:13.448Z,33.98
2018-06-30T11:26:47.915Z,35.90
2018-06-30T11:29:22.713Z,33.69
2018-06-30T11:31:56.888Z,33.48
2018-06-30T11:34:31.108Z,34.33
2018-06-30T11:37:05.464Z,35.58
2018-06-30T11:39:39.701Z,33.84
2018-06-30T11:42:13.954Z,35.11
2018-06-30T11:44:48.363Z,33.34
2018-06-30T11:47:22.732Z,34.83
2018-06-30T11:49:57.118Z,35.35
2018-06-30T11:52:31.388Z,33.99
2018-06-30T11:55:06.072Z,33.59
2018-06-30T11:57:40.483Z,33.54
2018-06-30T12:00:14.931Z,31.91
2018-06-30T12:02:49.211Z,30.94
2018-06-30T12:05:23.605Z,30.69
2018-06-30T12:07:57.891Z,30.07
2018-06-30T12:10:32.307Z,30.23
2018-06-30T12:13:06.807Z,29.41
2018-06-30T12:15:41.227Z,29.12
2018-06-30T12:18:15.443Z,28.61
2018-06-30T12:20:49.875Z,28.67
2018-06-30T12:23:24.419Z,28.49
2018-06-30T12:25:58.830Z,28.22
2018-06-30T12:28:33.218Z,28.17
2018-06-30T12:31:07.612Z,28.15
2018-06-30T12:33:41.981Z,28.18
2018-06-30T12:36:16.341Z,28.12
2018-06-30T12:38:50.860Z,28.00
2018-06-30T12:41:25.341Z,28.16
2018-06-30T12:43:59.750Z,28.22
2018-06-30T12:46:34.484Z,28.12
2018-06-30T12:49:09.154Z,28.22
2018-06-30T12:51:43.688Z,28.16
2018-06-30T12:54:18.150Z,27.99
2018-06-30T12:56:52.525Z,28.06
2018-06-30T12:59:26.999Z,27.50
2018-06-30T13:02:01.582Z,27.52
2018-06-30T13:04:36.178Z,27.73
2018-06-30T13:07:10.739Z,27.76
2018-06-30T13:09:45.249Z,27.86
2018-06-30T13:12:19.661Z,27.95
2018-06-30T13:14:54.098Z,27.93
2018-06-30T13:17:28.701Z,27.86
2018-06-30T13:20:03.346Z,28.11
2018-06-30T13:22:37.900Z,28.27
2018-06-30T13:25:12.312Z,28.19
2018-06-30T13:27:46.799Z,28.17
2018-06-30T13:30:21.280Z,28.19
2018-06-30T13:32:55.642Z,28.42
2018-06-30T13:35:30.120Z,28.49
2018-06-30T13:38:04.634Z,28.45
2018-06-30T13:40:39.066Z,28.65
2018-06-30T13:43:13.711Z,28.80
2018-06-30T13:45:48.067Z,28.93
2018-06-30T13:48:22.453Z,28.96
2018-06-30T13:50:56.830Z,28.84
2018-06-30T13:53:31.222Z,28.85
2018-06-30T13:56:05.944Z,28.71
2018-06-30T13:58:40.547Z,28.84
2018-06-30T14:01:15.017Z,29.08
2018-06-30T14:03:49.749Z,29.03
2018-06-30T14:06:24.285Z,29.36
2018-06-30T14:08:58.750Z,28.89
2018-06-30T14:11:33.355Z,29.11
2018-06-30T14:14:08.346Z,29.47
2018-06-30T14:16:42.768Z,29.25
2018-06-30T14:19:17.264Z,29.52
2018-06-30T14:21:51.776Z,29.52
2018-06-30T14:24:26.327Z,29.79
2018-06-30T14:27:00.681Z,30.12
2018-06-30T14:29:35.145Z,30.64
2018-06-30T14:32:09.647Z,31.27
2018-06-30T14:34:44.225Z,31.87
2018-06-30T14:37:18.635Z,32.00
2018-06-30T14:39:53.188Z,31.57
2018-06-30T14:42:27.752Z,33.12
2018-06-30T14:45:02.328Z,33.43
2018-06-30T14:47:36.797Z,33.15
2018-06-30T14:50:11.168Z,33.12
2018-06-30T14:52:45.664Z,32.20
2018-06-30T14:55:20.232Z,33.16
2018-06-30T14:57:54.641Z,32.81
2018-06-30T15:00:28.951Z,33.07
2018-06-30T15:03:03.508Z,32.16
2018-06-30T15:05:38.125Z,31.91
2018-06-30T15:08:12.612Z,31.52
2018-06-30T15:10:47.254Z,32.11
2018-06-30T15:13:21.697Z,31.38
2018-06-30T15:15:56.262Z,31.20
2018-06-30T15:18:30.768Z,30.79
2018-06-30T15:21:05.165Z,30.19
2018-06-30T15:23:39.512Z,29.97
2018-06-30T15:26:14.064Z,29.99
2018-06-30T15:28:48.600Z,29.86
2018-06-30T15:31:23.033Z,29.51
2018-06-30T15:33:57.663Z,29.54
2018-06-30T15:36:32.120Z,29.29
2018-06-30T15:39:08.720Z,28.99
2018-06-30T15:41:43.176Z,28.96
2018-06-30T15:44:17.724Z,28.89
2018-06-30T15:46:52.474Z,28.95
2018-06-30T15:49:27.061Z,28.73
2018-06-30T15:52:01.665Z,28.51
2018-06-30T15:54:36.388Z,28.42
2018-06-30T15:57:10.829Z,28.47
2018-06-30T15:59:45.183Z,28.60
2018-06-30T16:02:19.680Z,28.44
2018-06-30T16:04:54.063Z,28.30
2018-06-30T16:07:28.731Z,28.36
2018-06-30T16:10:03.355Z,28.26
2018-06-30T16:12:37.779Z,28.19
2018-06-30T16:15:12.392Z,28.24
2018-06-30T16:17:47.001Z,28.07
2018-06-30T16:20:21.711Z,27.79
2018-06-30T16:22:56.215Z,27.76
2018-06-30T16:25:30.805Z,27.64
2018-06-30T16:28:05.747Z,27.81
2018-06-30T16:30:40.151Z,27.78
2018-06-30T16:33:14.645Z,27.91
2018-06-30T16:35:49.160Z,27.83
2018-06-30T16:38:23.698Z,27.79
2018-06-30T16:40:58.068Z,27.79
2018-06-30T16:43:32.445Z,27.57
2018-06-30T16:46:06.929Z,27.49
2018-06-30T16:48:41.524Z,27.59
2018-06-30T16:51:16.102Z,27.61
2018-06-30T16:53:50.880Z,27.49
2018-06-30T16:56:25.365Z,27.32
2018-06-30T16:59:00.001Z,27.41
2018-06-30T17:01:34.710Z,27.35
2018-06-30T17:04:09.451Z,27.20
2018-06-30T17:06:43.976Z,27.17
2018-06-30T17:09:18.628Z,27.29
2018-06-30T17:11:53.233Z,27.11
2018-06-30T17:14:27.644Z,27.11
2018-06-30T17:17:02.069Z,27.01
2018-06-30T17:19:36.547Z,27.08
2018-06-30T17:22:11.056Z,26.91
2018-06-30T17:24:45.420Z,26.97
2018-06-30T17:27:19.845Z,27.00
2018-06-30T17:29:54.436Z,26.81
2018-06-30T17:32:29.156Z,26.82
2018-06-30T17:35:03.734Z,26.87
2018-06-30T17:37:38.331Z,26.84
2018-06-30T17:40:13.041Z,26.77
2018-06-30T17:42:47.574Z,26.64
2018-06-30T17:45:22.169Z,26.48
2018-06-30T17:47:56.551Z,26.42
2018-06-30T17:50:31.201Z,26.42
2018-06-30T17:53:05.813Z,26.41
2018-06-30T17:55:40.452Z,26.29
2018-06-30T17:58:14.940Z,26.18
2018-06-30T18:00:49.463Z,26.21
2018-06-30T18:03:23.901Z,26.23
2018-06-30T18:05:58.626Z,26.02
2018-06-30T18:08:33.152Z,26.05
2018-06-30T18:11:07.761Z,26.03
2018-06-30T18:13:42.257Z,25.80
2018-06-30T18:16:16.636Z,25.82
2018-06-30T18:18:51.161Z,25.87
2018-06-30T18:21:25.744Z,25.83
2018-06-30T18:24:00.174Z,25.68
2018-06-30T18:26:34.708Z,25.76
2018-06-30T18:29:09.177Z,25.77
2018-06-30T18:31:43.568Z,25.66
2018-06-30T18:34:17.920Z,25.67
2018-06-30T18:36:52.404Z,25.58
2018-06-30T18:39:26.976Z,25.45
2018-06-30T18:42:01.532Z,25.39
2018-06-30T18:44:36.029Z,25.35
2018-06-30T18:47:10.604Z,25.28
2018-06-30T18:49:45.114Z,25.17
2018-06-30T18:52:19.732Z,25.16
2018-06-30T18:54:54.481Z,25.06
2018-06-30T18:57:29.172Z,24.96
2018-06-30T19:00:03.591Z,25.01
2018-06-30T19:02:38.141Z,24.89
2018-06-30T19:05:12.746Z,24.87
2018-06-30T19:07:47.486Z,24.81
2018-06-30T19:10:22.010Z,24.59
2018-06-30T19:12:56.453Z,24.41
2018-06-30T19:15:30.974Z,24.46
2018-06-30T19:18:05.874Z,24.35
2018-06-30T19:20:40.423Z,24.19
2018-06-30T19:23:15.037Z,24.15
2018-06-30T19:25:49.649Z,24.18
2018-06-30T19:28:24.273Z,24.14
2018-06-30T19:30:58.811Z,24.04
2018-06-30T19:33:33.258Z,23.91
2018-06-30T19:36:07.981Z,23.82
2018-06-30T19:38:42.532Z,23.73
2018-06-30T19:41:17.180Z,23.58
2018-06-30T19:43:51.796Z,23.48
2018-06-30T19:46:26.365Z,23.40
2018-06-30T19:49:00.968Z,23.27
2018-06-30T19:51:35.679Z,23.18
2018-06-30T19:54:10.195Z,23.21
2018-06-30T19:56:44.596Z,23.06
2018-06-30T19:59:19.084Z,22.90
2018-06-30T20:01:53.745Z,22.70
2018-06-30T20:04:28.332Z,22.57
2018-06-30T20:07:02.826Z,22.66
2018-06-30T20:09:37.324Z,22.69
2018-06-30T20:12:11.831Z,22.51
2018-06-30T20:14:46.530Z,22.35
2018-06-30T20:17:21.054Z,22.16
2018-06-30T20:19:55.706Z,22.09
2018-06-30T20:22:30.452Z,22.04
2018-06-30T20:25:05.371Z,22.00
2018-06-30T20:27:39.862Z,22.04
2018-06-30T20:30:14.661Z,22.00
2018-06-30T20:32:49.145Z,21.93
2018-06-30T20:35:23.766Z,21.80
2018-06-30T20:37:58.292Z,21.66
2018-06-30T20:40:32.713Z,21.64
2018-06-30T20:43:07.380Z,21.68
2018-06-30T20:45:41.901Z,21.65
2018-06-30T20:48:17.202Z,21.58
2018-06-30T20:50:51.869Z,21.51
2018-06-30T20:53:26.448Z,21.50
2018-06-30T20:56:00.881Z,21.56
2018-06-30T20:58:35.353Z,21.38
2018-06-30T21:01:09.833Z,21.29
2018-06-30T21:03:44.438Z,21.36
2018-06-30T21:06:18.717Z,21.33
2018-06-30T21:08:53.109Z,21.12
2018-06-30T21:11:27.500Z,21.11
2018-06-30T21:14:01.944Z,21.09
2018-06-30T21:16:36.578Z,21.04
2018-06-30T21:19:12.029Z,21.01
2018-06-30T21:21:46.640Z,21.00
2018-06-30T21:24:21.073Z,20.92
2018-06-30T21:26:55.518Z,20.74
2018-06-30T21:29:29.994Z,20.67
2018-06-30T21:32:04.396Z,20.59
2018-06-30T21:34:39.118Z,20.60
2018-06-30T21:37:13.788Z,20.48
2018-06-30T21:39:48.472Z,20.37
2018-06-30T21:42:23.182Z,20.27
2018-06-30T21:44:57.729Z,20.30
2018-06-30T21:47:32.403Z,20.17
2018-06-30T21:50:06.952Z,20.06
2018-06-30T21:52:41.587Z,20.09
2018-06-30T21:55:16.241Z,20.22
2018-06-30T21:57:50.755Z,20.33
2018-06-30T22:00:48.522Z,20.31
2018-06-30T22:03:25.281Z,20.34
2018-06-30T22:05:59.689Z,20.28
2018-06-30T22:08:34.189Z,20.12
2018-06-30T22:11:08.902Z,20.11
2018-06-30T22:13:43.328Z,20.13
2018-06-30T22:16:18.030Z,20.12
2018-06-30T22:18:52.601Z,20.15
2018-06-30T22:21:27.092Z,20.08
2018-06-30T22:24:01.541Z,20.10
2018-06-30T22:26:36.050Z,20.03
2018-06-30T22:29:10.435Z,20.07
2018-06-30T22:31:44.986Z,20.00
2018-06-30T22:34:19.466Z,19.92
2018-06-30T22:36:54.028Z,19.78
2018-06-30T22:39:39.979Z,19.64
2018-06-30T22:42:14.509Z,19.51
2018-06-30T22:44:49.168Z,19.42
2018-06-30T22:47:23.719Z,19.30
2018-06-30T22:49:59.037Z,19.28
2018-06-30T22:52:33.692Z,19.26
2018-06-30T22:55:08.407Z,19.18
2018-06-30T22:57:42.998Z,19.13
2018-06-30T23:00:18.734Z,19.15
2018-06-30T23:02:53.309Z,19.17
2018-06-30T23:05:27.910Z,19.11
2018-06-30T23:08:02.502Z,19.10
2018-06-30T23:10:37.218Z,19.13
2018-06-30T23:13:11.774Z,19.12
2018-06-30T23:15:46.395Z,19.04
2018-06-30T23:18:20.859Z,18.99
2018-06-30T23:20:55.310Z,18.91
2018-06-30T23:23:29.874Z,18.84
2018-06-30T23:26:04.539Z,18.82
2018-06-30T23:28:39.015Z,18.78
2018-06-30T23:31:13.580Z,18.72
2018-06-30T23:33:48.225Z,18.67
2018-06-30T23:36:22.729Z,18.58
2018-06-30T23:38:57.448Z,18.57
2018-06-30T23:41:31.976Z,18.59
2018-06-30T23:44:06.398Z,18.56
2018-06-30T23:46:41.023Z,18.51
2018-06-30T23:49:15.412Z,18.51
2018-06-30T23:51:49.861Z,18.44
2018-06-30T23:54:24.453Z,18.42
2018-06-30T23:56:58.932Z,18.43
2018-06-30T23:59:33.378Z,18.40
